sensor_id;sensor_type;location;lat;lon;timestamp;pressure;altitude;pressure_sealevel;temperature;humidity
62025;BME280;47978;49.118;12.146;2023-04-09T00:00:28;98157.09;;;4.84;87.17
62025;BME280;47978;49.118;12.146;2023-04-09T00:04:31;98171.72;;;4.73;87.31
62025;BME280;47978;49.118;12.146;2023-04-09T00:08:32;98161.59;;;4.73;87.45
62025;BME280;47978;49.118;12.146;2023-04-09T00:12:33;98171.97;;;4.71;87.16
62025;BME280;47978;49.118;12.146;2023-04-09T00:16:35;98164.88;;;4.92;86.65
62025;BME280;47978;49.118;12.146;2023-04-09T00:20:38;98167.06;;;4.73;87.28
62025;BME280;47978;49.118;12.146;2023-04-09T00:24:39;98166.59;;;4.60;87.36
62025;BME280;47978;49.118;12.146;2023-04-09T00:28:40;98160.28;;;4.59;87.37
62025;BME280;47978;49.118;12.146;2023-04-09T00:32:42;98164.44;;;4.62;87.61
62025;BME280;47978;49.118;12.146;2023-04-09T00:36:44;98159.88;;;4.67;87.40
62025;BME280;47978;49.118;12.146;2023-04-09T00:40:47;98157.63;;;4.64;87.81
62025;BME280;47978;49.118;12.146;2023-04-09T00:44:49;98156.75;;;4.42;88.43
62025;BME280;47978;49.118;12.146;2023-04-09T00:48:50;98158.81;;;4.35;88.56
62025;BME280;47978;49.118;12.146;2023-04-09T00:52:53;98156.56;;;4.32;88.58
62025;BME280;47978;49.118;12.146;2023-04-09T00:56:55;98156.47;;;4.43;87.52
62025;BME280;47978;49.118;12.146;2023-04-09T01:00:57;98156.47;;;4.26;88.00
62025;BME280;47978;49.118;12.146;2023-04-09T01:04:58;98169.91;;;4.11;87.61
62025;BME280;47978;49.118;12.146;2023-04-09T01:09:04;98172.06;;;4.09;87.47
62025;BME280;47978;49.118;12.146;2023-04-09T01:13:06;98174.44;;;3.89;87.43
62025;BME280;47978;49.118;12.146;2023-04-09T01:17:10;98171.34;;;3.68;86.77
62025;BME280;47978;49.118;12.146;2023-04-09T01:21:13;98167.53;;;3.41;87.45
62025;BME280;47978;49.118;12.146;2023-04-09T01:25:21;98165.94;;;3.28;87.17
62025;BME280;47978;49.118;12.146;2023-04-09T01:29:31;98157.31;;;2.96;88.35
62025;BME280;47978;49.118;12.146;2023-04-09T01:33:33;98159.34;;;3.00;87.50
62025;BME280;47978;49.118;12.146;2023-04-09T01:37:35;98146.78;;;2.76;88.48
62025;BME280;47978;49.118;12.146;2023-04-09T01:41:37;98152.00;;;2.77;88.30
62025;BME280;47978;49.118;12.146;2023-04-09T01:45:41;98150.94;;;2.78;87.74
62025;BME280;47978;49.118;12.146;2023-04-09T01:49:44;98151.69;;;2.62;88.18
62025;BME280;47978;49.118;12.146;2023-04-09T01:53:45;98157.72;;;2.40;88.88
62025;BME280;47978;49.118;12.146;2023-04-09T01:57:47;98153.22;;;2.22;89.54
62025;BME280;47978;49.118;12.146;2023-04-09T02:01:51;98157.00;;;2.21;89.97
62025;BME280;47978;49.118;12.146;2023-04-09T02:05:54;98162.09;;;2.18;88.88
62025;BME280;47978;49.118;12.146;2023-04-09T02:09:57;98167.88;;;1.98;89.60
62025;BME280;47978;49.118;12.146;2023-04-09T02:13:59;98178.91;;;1.91;89.96
62025;BME280;47978;49.118;12.146;2023-04-09T02:18:03;98181.72;;;1.85;90.13
62025;BME280;47978;49.118;12.146;2023-04-09T02:22:04;98174.31;;;1.73;89.95
62025;BME280;47978;49.118;12.146;2023-04-09T02:26:05;98179.44;;;1.82;89.36
62025;BME280;47978;49.118;12.146;2023-04-09T02:30:07;98189.13;;;1.66;89.81
62025;BME280;47978;49.118;12.146;2023-04-09T02:34:10;98185.69;;;1.70;89.70
62025;BME280;47978;49.118;12.146;2023-04-09T02:38:11;98193.38;;;1.92;88.17
62025;BME280;47978;49.118;12.146;2023-04-09T02:42:13;98191.81;;;1.54;88.90
62025;BME280;47978;49.118;12.146;2023-04-09T02:46:14;98202.91;;;1.41;89.40
62025;BME280;47978;49.118;12.146;2023-04-09T02:50:17;98190.25;;;1.28;89.35
62025;BME280;47978;49.118;12.146;2023-04-09T02:54:18;98194.16;;;1.20;89.69
62025;BME280;47978;49.118;12.146;2023-04-09T02:58:20;98191.03;;;1.17;89.39
62025;BME280;47978;49.118;12.146;2023-04-09T03:02:21;98189.22;;;1.10;89.50
62025;BME280;47978;49.118;12.146;2023-04-09T03:06:24;98184.16;;;1.14;89.12
62025;BME280;47978;49.118;12.146;2023-04-09T03:10:26;98186.50;;;1.10;89.24
62025;BME280;47978;49.118;12.146;2023-04-09T03:14:27;98179.69;;;1.20;88.73
62025;BME280;47978;49.118;12.146;2023-04-09T03:18:28;98186.22;;;1.00;90.25
62025;BME280;47978;49.118;12.146;2023-04-09T03:22:35;98186.28;;;0.94;90.78
62025;BME280;47978;49.118;12.146;2023-04-09T03:26:37;98179.78;;;0.95;90.39
62025;BME280;47978;49.118;12.146;2023-04-09T03:30:38;98176.91;;;0.89;90.69
62025;BME280;47978;49.118;12.146;2023-04-09T03:34:39;98177.06;;;0.95;90.48
62025;BME280;47978;49.118;12.146;2023-04-09T03:38:42;98176.75;;;0.84;91.10
62025;BME280;47978;49.118;12.146;2023-04-09T03:42:44;98180.16;;;0.80;91.22
62025;BME280;47978;49.118;12.146;2023-04-09T03:46:45;98172.22;;;0.78;91.58
62025;BME280;47978;49.118;12.146;2023-04-09T03:50:46;98171.16;;;0.79;91.59
62025;BME280;47978;49.118;12.146;2023-04-09T03:54:49;98167.97;;;0.82;91.41
62025;BME280;47978;49.118;12.146;2023-04-09T03:58:50;98166.84;;;0.90;91.13
62025;BME280;47978;49.118;12.146;2023-04-09T04:02:52;98174.19;;;0.89;90.89
62025;BME280;47978;49.118;12.146;2023-04-09T04:06:54;98172.28;;;0.90;90.75
62025;BME280;47978;49.118;12.146;2023-04-09T04:10:57;98169.34;;;0.92;91.03
62025;BME280;47978;49.118;12.146;2023-04-09T04:15:03;98175.63;;;0.92;91.34
62025;BME280;47978;49.118;12.146;2023-04-09T04:19:04;98179.84;;;0.88;91.64
62025;BME280;47978;49.118;12.146;2023-04-09T04:23:06;98188.31;;;0.98;91.50
62025;BME280;47978;49.118;12.146;2023-04-09T04:27:08;98198.59;;;0.96;91.90
62025;BME280;47978;49.118;12.146;2023-04-09T04:31:10;98193.56;;;1.00;91.87
62025;BME280;47978;49.118;12.146;2023-04-09T04:35:12;98205.84;;;1.02;91.71
62025;BME280;47978;49.118;12.146;2023-04-09T04:39:13;98198.44;;;0.91;92.08
62025;BME280;47978;49.118;12.146;2023-04-09T04:43:16;98205.94;;;0.96;91.93
62025;BME280;47978;49.118;12.146;2023-04-09T04:47:17;98201.84;;;1.05;91.46
62025;BME280;47978;49.118;12.146;2023-04-09T04:51:19;98206.78;;;1.15;90.54
62025;BME280;47978;49.118;12.146;2023-04-09T04:55:20;98214.56;;;1.11;90.64
62025;BME280;47978;49.118;12.146;2023-04-09T04:59:23;98209.09;;;1.11;91.16
62025;BME280;47978;49.118;12.146;2023-04-09T05:03:24;98210.03;;;1.05;91.37
62025;BME280;47978;49.118;12.146;2023-04-09T05:07:27;98210.69;;;1.19;91.04
62025;BME280;47978;49.118;12.146;2023-04-09T05:11:29;98207.47;;;1.10;91.27
62025;BME280;47978;49.118;12.146;2023-04-09T05:15:31;98206.31;;;1.18;91.37
62025;BME280;47978;49.118;12.146;2023-04-09T05:19:33;98206.19;;;1.31;90.75
62025;BME280;47978;49.118;12.146;2023-04-09T05:23:34;98205.06;;;1.50;89.20
62025;BME280;47978;49.118;12.146;2023-04-09T05:27:36;98205.78;;;1.46;89.64
62025;BME280;47978;49.118;12.146;2023-04-09T05:31:38;98209.00;;;1.54;89.21
62025;BME280;47978;49.118;12.146;2023-04-09T05:35:40;98216.34;;;1.84;88.15
62025;BME280;47978;49.118;12.146;2023-04-09T05:39:41;98206.59;;;2.30;86.42
62025;BME280;47978;49.118;12.146;2023-04-09T05:43:42;98222.47;;;2.10;86.92
62025;BME280;47978;49.118;12.146;2023-04-09T05:47:45;98232.56;;;2.21;86.72
62025;BME280;47978;49.118;12.146;2023-04-09T05:51:47;98228.22;;;1.90;88.06
62025;BME280;47978;49.118;12.146;2023-04-09T05:55:48;98234.22;;;2.22;87.51
62025;BME280;47978;49.118;12.146;2023-04-09T05:59:49;98222.53;;;2.45;86.99
62025;BME280;47978;49.118;12.146;2023-04-09T06:03:52;98226.91;;;2.81;86.46
62025;BME280;47978;49.118;12.146;2023-04-09T06:07:58;98242.00;;;2.84;86.70
62025;BME280;47978;49.118;12.146;2023-04-09T06:11:59;98245.22;;;2.92;87.90
62025;BME280;47978;49.118;12.146;2023-04-09T06:16:02;98238.88;;;3.15;87.27
62025;BME280;47978;49.118;12.146;2023-04-09T06:20:05;98236.41;;;3.14;87.04
62025;BME280;47978;49.118;12.146;2023-04-09T06:24:07;98237.94;;;3.33;87.07
62025;BME280;47978;49.118;12.146;2023-04-09T06:28:08;98242.56;;;3.73;86.76
62025;BME280;47978;49.118;12.146;2023-04-09T06:32:10;98248.84;;;4.02;86.32
62025;BME280;47978;49.118;12.146;2023-04-09T06:36:12;98249.94;;;4.18;86.20
62025;BME280;47978;49.118;12.146;2023-04-09T06:40:14;98257.22;;;4.41;85.92
62025;BME280;47978;49.118;12.146;2023-04-09T06:44:15;98256.56;;;4.68;85.07
62025;BME280;47978;49.118;12.146;2023-04-09T06:48:17;98255.75;;;4.84;85.23
62025;BME280;47978;49.118;12.146;2023-04-09T06:52:19;98251.88;;;5.02;84.76
62025;BME280;47978;49.118;12.146;2023-04-09T06:56:21;98252.41;;;5.38;84.11
62025;BME280;47978;49.118;12.146;2023-04-09T07:00:22;98249.31;;;6.00;82.26
62025;BME280;47978;49.118;12.146;2023-04-09T07:04:23;98256.69;;;6.22;80.14
62025;BME280;47978;49.118;12.146;2023-04-09T07:08:26;98253.75;;;6.01;79.33
62025;BME280;47978;49.118;12.146;2023-04-09T07:12:28;98261.66;;;5.76;80.63
62025;BME280;47978;49.118;12.146;2023-04-09T07:16:29;98255.53;;;5.69;81.24
62025;BME280;47978;49.118;12.146;2023-04-09T07:20:31;98264.53;;;6.08;79.90
62025;BME280;47978;49.118;12.146;2023-04-09T07:24:34;98273.25;;;6.27;79.36
62025;BME280;47978;49.118;12.146;2023-04-09T07:28:35;98269.03;;;6.46;78.71
62025;BME280;47978;49.118;12.146;2023-04-09T07:32:36;98268.47;;;6.44;78.73
62025;BME280;47978;49.118;12.146;2023-04-09T07:36:38;98267.59;;;6.39;78.53
62025;BME280;47978;49.118;12.146;2023-04-09T07:40:41;98264.44;;;6.25;78.87
62025;BME280;47978;49.118;12.146;2023-04-09T07:44:42;98268.72;;;6.16;79.76
62025;BME280;47978;49.118;12.146;2023-04-09T07:48:43;98271.81;;;6.51;79.60
62025;BME280;47978;49.118;12.146;2023-04-09T07:52:47;98271.16;;;6.39;78.32
62025;BME280;47978;49.118;12.146;2023-04-09T07:56:50;98273.69;;;6.46;79.31
62025;BME280;47978;49.118;12.146;2023-04-09T08:00:51;98269.88;;;6.47;79.18
62025;BME280;47978;49.118;12.146;2023-04-09T08:04:52;98274.63;;;6.57;79.39
62025;BME280;47978;49.118;12.146;2023-04-09T08:08:54;98265.19;;;6.80;78.94
62025;BME280;47978;49.118;12.146;2023-04-09T08:12:57;98265.44;;;7.10;77.24
62025;BME280;47978;49.118;12.146;2023-04-09T08:16:58;98259.75;;;7.27;76.10
62025;BME280;47978;49.118;12.146;2023-04-09T08:21:03;98247.25;;;7.57;75.53
62025;BME280;47978;49.118;12.146;2023-04-09T08:25:05;98244.94;;;7.96;74.96
62025;BME280;47978;49.118;12.146;2023-04-09T08:29:10;98247.22;;;8.30;74.27
62025;BME280;47978;49.118;12.146;2023-04-09T08:33:12;98252.53;;;8.62;72.30
62025;BME280;47978;49.118;12.146;2023-04-09T08:37:14;98260.28;;;8.86;71.80
62025;BME280;47978;49.118;12.146;2023-04-09T08:41:18;98259.97;;;9.18;70.60
62025;BME280;47978;49.118;12.146;2023-04-09T08:45:21;98269.63;;;9.26;70.36
62025;BME280;47978;49.118;12.146;2023-04-09T08:49:22;98276.16;;;9.55;68.55
62025;BME280;47978;49.118;12.146;2023-04-09T08:53:24;98283.06;;;9.53;68.62
62025;BME280;47978;49.118;12.146;2023-04-09T08:57:25;98276.66;;;9.73;68.61
62025;BME280;47978;49.118;12.146;2023-04-09T09:01:28;98269.34;;;10.07;67.78
62025;BME280;47978;49.118;12.146;2023-04-09T09:05:34;98272.59;;;10.25;66.44
62025;BME280;47978;49.118;12.146;2023-04-09T09:09:40;98279.81;;;10.16;66.52
62025;BME280;47978;49.118;12.146;2023-04-09T09:13:55;98264.25;;;10.35;65.78
62025;BME280;47978;49.118;12.146;2023-04-09T09:17:58;98271.72;;;10.40;64.38
62025;BME280;47978;49.118;12.146;2023-04-09T09:22:00;98262.31;;;10.35;61.93
62025;BME280;47978;49.118;12.146;2023-04-09T09:26:09;98266.81;;;10.66;61.14
62025;BME280;47978;49.118;12.146;2023-04-09T09:30:19;98262.69;;;10.63;59.25
62025;BME280;47978;49.118;12.146;2023-04-09T09:34:23;98262.09;;;10.71;59.11
62025;BME280;47978;49.118;12.146;2023-04-09T09:38:24;98256.41;;;10.52;59.22
62025;BME280;47978;49.118;12.146;2023-04-09T09:42:26;98255.34;;;10.43;58.76
62025;BME280;47978;49.118;12.146;2023-04-09T09:46:27;98265.28;;;10.49;58.88
62025;BME280;47978;49.118;12.146;2023-04-09T09:50:33;98259.59;;;10.30;59.48
62025;BME280;47978;49.118;12.146;2023-04-09T09:54:37;98261.34;;;10.55;59.04
62025;BME280;47978;49.118;12.146;2023-04-09T09:58:40;98255.91;;;10.45;59.58
62025;BME280;47978;49.118;12.146;2023-04-09T10:02:42;98260.72;;;10.69;58.12
62025;BME280;47978;49.118;12.146;2023-04-09T10:06:45;98251.19;;;10.85;58.82
62025;BME280;47978;49.118;12.146;2023-04-09T10:10:47;98245.44;;;10.76;58.16
62025;BME280;47978;49.118;12.146;2023-04-09T10:14:50;98238.72;;;11.17;57.65
62025;BME280;47978;49.118;12.146;2023-04-09T10:18:51;98247.78;;;11.52;56.86
62025;BME280;47978;49.118;12.146;2023-04-09T10:22:55;98241.94;;;11.77;56.57
62025;BME280;47978;49.118;12.146;2023-04-09T10:26:58;98229.06;;;11.91;56.07
62025;BME280;47978;49.118;12.146;2023-04-09T10:31:09;98230.88;;;11.53;56.62
62025;BME280;47978;49.118;12.146;2023-04-09T10:35:11;98230.25;;;11.61;58.06
62025;BME280;47978;49.118;12.146;2023-04-09T10:39:13;98227.34;;;11.96;55.71
62025;BME280;47978;49.118;12.146;2023-04-09T10:43:16;98233.22;;;12.32;54.79
62025;BME280;47978;49.118;12.146;2023-04-09T10:47:30;98233.28;;;12.46;53.93
62025;BME280;47978;49.118;12.146;2023-04-09T10:51:33;98222.06;;;12.37;52.86
62025;BME280;47978;49.118;12.146;2023-04-09T10:55:36;98226.44;;;12.00;54.86
62025;BME280;47978;49.118;12.146;2023-04-09T10:59:39;98223.44;;;11.97;56.26
62025;BME280;47978;49.118;12.146;2023-04-09T11:03:41;98226.22;;;11.97;55.82
62025;BME280;47978;49.118;12.146;2023-04-09T11:07:46;98225.19;;;12.11;54.98
62025;BME280;47978;49.118;12.146;2023-04-09T11:11:52;98228.66;;;12.22;55.33
62025;BME280;47978;49.118;12.146;2023-04-09T11:15:53;98229.09;;;12.48;54.47
62025;BME280;47978;49.118;12.146;2023-04-09T11:19:55;98223.91;;;12.79;52.99
62025;BME280;47978;49.118;12.146;2023-04-09T11:23:56;98223.34;;;12.96;52.40
62025;BME280;47978;49.118;12.146;2023-04-09T11:28:01;98219.25;;;13.08;51.59
62025;BME280;47978;49.118;12.146;2023-04-09T11:32:02;98208.38;;;13.25;51.04
62025;BME280;47978;49.118;12.146;2023-04-09T11:36:04;98198.03;;;13.31;50.20
62025;BME280;47978;49.118;12.146;2023-04-09T11:40:06;98204.19;;;12.81;51.50
62025;BME280;47978;49.118;12.146;2023-04-09T11:44:09;98205.13;;;12.38;52.08
62025;BME280;47978;49.118;12.146;2023-04-09T11:48:10;98204.66;;;12.50;51.48
62025;BME280;47978;49.118;12.146;2023-04-09T11:52:12;98195.41;;;12.55;51.62
62025;BME280;47978;49.118;12.146;2023-04-09T11:56:14;98202.00;;;12.78;52.59
62025;BME280;47978;49.118;12.146;2023-04-09T12:00:18;98208.25;;;12.51;52.62
62025;BME280;47978;49.118;12.146;2023-04-09T12:04:20;98201.72;;;12.60;53.09
62025;BME280;47978;49.118;12.146;2023-04-09T12:08:21;98201.63;;;12.85;51.38
62025;BME280;47978;49.118;12.146;2023-04-09T12:12:23;98194.56;;;12.92;50.69
62025;BME280;47978;49.118;12.146;2023-04-09T12:16:26;98187.66;;;13.36;50.95
62025;BME280;47978;49.118;12.146;2023-04-09T12:20:31;98187.88;;;13.81;50.35
62025;BME280;47978;49.118;12.146;2023-04-09T12:24:33;98185.19;;;13.90;48.21
62025;BME280;47978;49.118;12.146;2023-04-09T12:28:34;98202.69;;;13.49;47.85
62025;BME280;47978;49.118;12.146;2023-04-09T12:32:37;98193.91;;;13.28;49.76
62025;BME280;47978;49.118;12.146;2023-04-09T12:36:38;98190.59;;;13.12;50.21
62025;BME280;47978;49.118;12.146;2023-04-09T12:40:40;98184.97;;;13.45;48.46
62025;BME280;47978;49.118;12.146;2023-04-09T12:44:41;98180.66;;;13.80;47.52
62025;BME280;47978;49.118;12.146;2023-04-09T12:48:44;98166.09;;;13.97;48.25
62025;BME280;47978;49.118;12.146;2023-04-09T12:52:45;98162.41;;;13.88;47.25
62025;BME280;47978;49.118;12.146;2023-04-09T12:56:47;98165.81;;;13.99;47.63
62025;BME280;47978;49.118;12.146;2023-04-09T13:00:48;98165.69;;;14.04;47.88
62025;BME280;47978;49.118;12.146;2023-04-09T13:04:51;98159.81;;;14.05;47.67
62025;BME280;47978;49.118;12.146;2023-04-09T13:08:52;98164.16;;;13.98;45.69
62025;BME280;47978;49.118;12.146;2023-04-09T13:12:53;98145.22;;;13.86;47.32
62025;BME280;47978;49.118;12.146;2023-04-09T13:16:55;98161.97;;;14.08;47.13
62025;BME280;47978;49.118;12.146;2023-04-09T13:20:57;98155.69;;;14.39;46.65
62025;BME280;47978;49.118;12.146;2023-04-09T13:24:59;98138.50;;;14.82;44.82
62025;BME280;47978;49.118;12.146;2023-04-09T13:29:00;98143.09;;;14.78;45.12
62025;BME280;47978;49.118;12.146;2023-04-09T13:33:02;98154.28;;;14.28;47.09
62025;BME280;47978;49.118;12.146;2023-04-09T13:37:05;98166.88;;;13.34;50.03
62025;BME280;47978;49.118;12.146;2023-04-09T13:41:06;98172.66;;;12.72;52.61
62025;BME280;47978;49.118;12.146;2023-04-09T13:45:08;98160.19;;;12.55;54.21
62025;BME280;47978;49.118;12.146;2023-04-09T13:49:09;98157.03;;;12.62;54.00
62025;BME280;47978;49.118;12.146;2023-04-09T13:53:12;98160.38;;;12.78;52.37
62025;BME280;47978;49.118;12.146;2023-04-09T13:57:14;98160.59;;;12.81;51.55
62025;BME280;47978;49.118;12.146;2023-04-09T14:01:15;98151.59;;;13.17;51.44
62025;BME280;47978;49.118;12.146;2023-04-09T14:05:16;98132.28;;;13.67;50.49
62025;BME280;47978;49.118;12.146;2023-04-09T14:09:19;98137.81;;;13.95;50.59
62025;BME280;47978;49.118;12.146;2023-04-09T14:13:20;98141.34;;;13.59;50.01
62025;BME280;47978;49.118;12.146;2023-04-09T14:17:22;98148.09;;;13.12;49.79
62025;BME280;47978;49.118;12.146;2023-04-09T14:21:23;98145.69;;;12.91;49.73
62025;BME280;47978;49.118;12.146;2023-04-09T14:25:26;98149.41;;;12.87;50.55
62025;BME280;47978;49.118;12.146;2023-04-09T14:29:28;98153.47;;;12.75;50.23
62025;BME280;47978;49.118;12.146;2023-04-09T14:33:29;98152.50;;;12.66;49.65
62025;BME280;47978;49.118;12.146;2023-04-09T14:37:30;98149.31;;;12.59;49.42
62025;BME280;47978;49.118;12.146;2023-04-09T14:41:33;98148.50;;;12.58;48.52
62025;BME280;47978;49.118;12.146;2023-04-09T14:45:34;98148.63;;;12.67;48.27
62025;BME280;47978;49.118;12.146;2023-04-09T14:49:36;98134.75;;;12.67;49.08
62025;BME280;47978;49.118;12.146;2023-04-09T14:53:37;98141.38;;;12.52;49.07
62025;BME280;47978;49.118;12.146;2023-04-09T14:57:40;98136.31;;;12.22;49.68
62025;BME280;47978;49.118;12.146;2023-04-09T15:01:42;98140.19;;;11.83;50.87
62025;BME280;47978;49.118;12.146;2023-04-09T15:05:43;98149.31;;;11.64;52.15
62025;BME280;47978;49.118;12.146;2023-04-09T15:09:44;98147.41;;;11.60;53.23
62025;BME280;47978;49.118;12.146;2023-04-09T15:13:47;98144.38;;;11.80;52.59
62025;BME280;47978;49.118;12.146;2023-04-09T15:17:49;98141.66;;;12.18;50.65
62025;BME280;47978;49.118;12.146;2023-04-09T15:21:50;98145.53;;;12.36;50.38
62025;BME280;47978;49.118;12.146;2023-04-09T15:25:51;98133.47;;;12.27;49.95
62025;BME280;47978;49.118;12.146;2023-04-09T15:29:54;98138.03;;;12.18;50.80
62025;BME280;47978;49.118;12.146;2023-04-09T15:33:56;98130.31;;;12.14;51.06
62025;BME280;47978;49.118;12.146;2023-04-09T15:37:57;98141.59;;;12.04;50.69
62025;BME280;47978;49.118;12.146;2023-04-09T15:41:59;98130.31;;;12.14;49.35
62025;BME280;47978;49.118;12.146;2023-04-09T15:46:06;98129.19;;;12.34;48.79
62025;BME280;47978;49.118;12.146;2023-04-09T15:50:08;98133.28;;;12.56;47.44
62025;BME280;47978;49.118;12.146;2023-04-09T15:54:10;98128.47;;;12.62;46.27
62025;BME280;47978;49.118;12.146;2023-04-09T15:58:11;98128.50;;;12.75;46.13
62025;BME280;47978;49.118;12.146;2023-04-09T16:02:14;98116.56;;;12.75;45.53
62025;BME280;47978;49.118;12.146;2023-04-09T16:06:15;98122.97;;;12.75;44.67
62025;BME280;47978;49.118;12.146;2023-04-09T16:10:17;98121.09;;;12.71;44.10
62025;BME280;47978;49.118;12.146;2023-04-09T16:14:18;98121.88;;;12.57;44.05
62025;BME280;47978;49.118;12.146;2023-04-09T16:18:21;98116.44;;;12.66;45.18
62025;BME280;47978;49.118;12.146;2023-04-09T16:22:22;98121.41;;;12.83;45.20
62025;BME280;47978;49.118;12.146;2023-04-09T16:26:24;98122.63;;;12.77;45.42
62025;BME280;47978;49.118;12.146;2023-04-09T16:30:26;98121.16;;;12.98;44.95
62025;BME280;47978;49.118;12.146;2023-04-09T16:34:28;98132.03;;;13.09;44.63
62025;BME280;47978;49.118;12.146;2023-04-09T16:38:30;98132.75;;;13.00;45.09
62025;BME280;47978;49.118;12.146;2023-04-09T16:42:31;98135.78;;;13.18;45.41
62025;BME280;47978;49.118;12.146;2023-04-09T16:46:34;98133.38;;;13.11;45.42
62025;BME280;47978;49.118;12.146;2023-04-09T16:50:37;98128.78;;;13.07;46.20
62025;BME280;47978;49.118;12.146;2023-04-09T16:54:39;98129.38;;;13.03;46.28
62025;BME280;47978;49.118;12.146;2023-04-09T16:58:40;98129.59;;;13.07;47.28
62025;BME280;47978;49.118;12.146;2023-04-09T17:02:41;98135.13;;;13.07;46.82
62025;BME280;47978;49.118;12.146;2023-04-09T17:06:44;98131.44;;;12.98;47.02
62025;BME280;47978;49.118;12.146;2023-04-09T17:10:46;98136.06;;;13.16;47.84
62025;BME280;47978;49.118;12.146;2023-04-09T17:14:47;98134.97;;;13.45;47.44
62025;BME280;47978;49.118;12.146;2023-04-09T17:18:48;98136.72;;;13.27;47.65
62025;BME280;47978;49.118;12.146;2023-04-09T17:22:51;98142.84;;;12.96;48.76
62025;BME280;47978;49.118;12.146;2023-04-09T17:26:52;98149.91;;;12.89;49.26
62025;BME280;47978;49.118;12.146;2023-04-09T17:30:54;98162.72;;;12.52;50.44
62025;BME280;47978;49.118;12.146;2023-04-09T17:34:55;98162.25;;;12.31;51.03
62025;BME280;47978;49.118;12.146;2023-04-09T17:38:58;98163.00;;;11.99;52.23
62025;BME280;47978;49.118;12.146;2023-04-09T17:42:59;98159.25;;;11.65;53.04
62025;BME280;47978;49.118;12.146;2023-04-09T17:47:01;98166.34;;;11.53;53.64
62025;BME280;47978;49.118;12.146;2023-04-09T17:51:02;98165.69;;;11.37;53.73
62025;BME280;47978;49.118;12.146;2023-04-09T17:55:06;98172.25;;;11.22;54.30
62025;BME280;47978;49.118;12.146;2023-04-09T17:59:08;98172.50;;;10.96;54.75
62025;BME280;47978;49.118;12.146;2023-04-09T18:03:10;98179.53;;;10.84;55.43
62025;BME280;47978;49.118;12.146;2023-04-09T18:07:12;98179.91;;;10.72;56.28
62025;BME280;47978;49.118;12.146;2023-04-09T18:11:14;98180.03;;;10.62;57.28
62025;BME280;47978;49.118;12.146;2023-04-09T18:15:16;98191.22;;;10.41;58.58
62025;BME280;47978;49.118;12.146;2023-04-09T18:19:17;98191.88;;;10.23;60.07
62025;BME280;47978;49.118;12.146;2023-04-09T18:23:19;98200.53;;;10.11;60.89
62025;BME280;47978;49.118;12.146;2023-04-09T18:27:22;98205.41;;;9.80;62.76
62025;BME280;47978;49.118;12.146;2023-04-09T18:31:23;98204.41;;;9.50;63.58
62025;BME280;47978;49.118;12.146;2023-04-09T18:35:24;98206.94;;;9.36;63.96
62025;BME280;47978;49.118;12.146;2023-04-09T18:39:26;98210.59;;;9.16;64.43
62025;BME280;47978;49.118;12.146;2023-04-09T18:43:29;98221.63;;;9.01;64.89
62025;BME280;47978;49.118;12.146;2023-04-09T18:47:30;98228.28;;;8.64;66.05
62025;BME280;47978;49.118;12.146;2023-04-09T18:51:31;98228.84;;;8.51;66.53
62025;BME280;47978;49.118;12.146;2023-04-09T18:55:33;98227.69;;;8.31;67.19
62025;BME280;47978;49.118;12.146;2023-04-09T18:59:36;98224.91;;;8.21;67.68
62025;BME280;47978;49.118;12.146;2023-04-09T19:03:37;98235.84;;;7.96;68.78
62025;BME280;47978;49.118;12.146;2023-04-09T19:07:39;98237.13;;;7.68;69.85
62025;BME280;47978;49.118;12.146;2023-04-09T19:11:40;98240.09;;;7.56;70.09
62025;BME280;47978;49.118;12.146;2023-04-09T19:15:43;98234.53;;;7.46;70.64
62025;BME280;47978;49.118;12.146;2023-04-09T19:19:44;98253.16;;;7.28;70.84
62025;BME280;47978;49.118;12.146;2023-04-09T19:23:46;98254.19;;;7.17;71.24
62025;BME280;47978;49.118;12.146;2023-04-09T19:27:47;98251.72;;;7.15;71.08
62025;BME280;47978;49.118;12.146;2023-04-09T19:31:50;98251.25;;;6.91;71.98
62025;BME280;47978;49.118;12.146;2023-04-09T19:35:52;98252.19;;;6.70;72.40
62025;BME280;47978;49.118;12.146;2023-04-09T19:39:55;98253.28;;;6.37;73.59
62025;BME280;47978;49.118;12.146;2023-04-09T19:43:57;98254.63;;;6.07;74.78
62025;BME280;47978;49.118;12.146;2023-04-09T19:47:59;98256.75;;;6.00;75.00
62025;BME280;47978;49.118;12.146;2023-04-09T19:52:01;98261.91;;;5.74;75.94
62025;BME280;47978;49.118;12.146;2023-04-09T19:56:02;98266.38;;;5.58;76.53
62025;BME280;47978;49.118;12.146;2023-04-09T20:00:04;98261.25;;;5.45;76.80
62025;BME280;47978;49.118;12.146;2023-04-09T20:04:07;98265.47;;;5.31;77.25
62025;BME280;47978;49.118;12.146;2023-04-09T20:08:09;98275.13;;;5.16;77.65
62025;BME280;47978;49.118;12.146;2023-04-09T20:12:15;98278.72;;;5.00;78.13
62025;BME280;47978;49.118;12.146;2023-04-09T20:16:17;98275.47;;;5.03;77.98
62025;BME280;47978;49.118;12.146;2023-04-09T20:20:20;98269.84;;;4.93;78.04
62025;BME280;47978;49.118;12.146;2023-04-09T20:24:21;98269.44;;;4.67;78.55
62025;BME280;47978;49.118;12.146;2023-04-09T20:28:22;98268.44;;;4.57;79.46
62025;BME280;47978;49.118;12.146;2023-04-09T20:32:24;98261.13;;;4.45;80.05
62025;BME280;47978;49.118;12.146;2023-04-09T20:36:27;98259.06;;;4.36;80.25
62025;BME280;47978;49.118;12.146;2023-04-09T20:40:28;98266.34;;;4.30;80.17
62025;BME280;47978;49.118;12.146;2023-04-09T20:44:29;98264.81;;;4.22;80.79
62025;BME280;47978;49.118;12.146;2023-04-09T20:48:31;98263.47;;;4.08;81.09
62025;BME280;47978;49.118;12.146;2023-04-09T20:52:33;98261.44;;;4.03;81.29
62025;BME280;47978;49.118;12.146;2023-04-09T20:56:35;98266.59;;;4.00;80.70
62025;BME280;47978;49.118;12.146;2023-04-09T21:00:36;98269.44;;;4.05;80.51
62025;BME280;47978;49.118;12.146;2023-04-09T21:04:37;98265.28;;;3.74;81.46
62025;BME280;47978;49.118;12.146;2023-04-09T21:08:40;98272.53;;;3.68;82.24
62025;BME280;47978;49.118;12.146;2023-04-09T21:12:42;98274.72;;;3.54;82.45